sensor_id;sensor_type;location;lat;lon;timestamp;P1;durP1;ratioP1;P2;durP2;ratioP2
23242;SDS011;11790;49.578;11.214;2023-08-07T00:03:57;1.42;;;0.70;;
23242;SDS011;11790;49.578;11.214;2023-08-07T00:08:58;0.80;;;0.50;;
23242;SDS011;11790;49.578;11.214;2023-08-07T00:13:58;0.50;;;0.50;;
23242;SDS011;11790;49.578;11.214;2023-08-07T00:18:59;0.75;;;0.50;;
23242;SDS011;11790;49.578;11.214;2023-08-07T00:24:00;1.65;;;0.40;;
23242;SDS011;11790;49.578;11.214;2023-08-07T00:29:00;0.68;;;0.30;;
23242;SDS011;11790;49.578;11.214;2023-08-07T00:34:00;1.35;;;0.40;;
23242;SDS011;11790;49.578;11.214;2023-08-07T00:39:01;0.75;;;0.40;;
23242;SDS011;11790;49.578;11.214;2023-08-07T00:44:01;0.77;;;0.40;;
23242;SDS011;11790;49.578;11.214;2023-08-07T00:49:01;0.60;;;0.40;;
23242;SDS011;11790;49.578;11.214;2023-08-07T00:54:02;0.38;;;0.30;;
23242;SDS011;11790;49.578;11.214;2023-08-07T00:59:03;3.08;;;0.80;;
23242;SDS011;11790;49.578;11.214;2023-08-07T01:04:03;0.93;;;0.40;;
23242;SDS011;11790;49.578;11.214;2023-08-07T01:09:03;2.22;;;0.30;;
23242;SDS011;11790;49.578;11.214;2023-08-07T01:19:23;1.02;;;0.50;;
23242;SDS011;11790;49.578;11.214;2023-08-07T01:24:24;1.98;;;0.50;;
23242;SDS011;11790;49.578;11.214;2023-08-07T01:29:26;0.35;;;0.30;;
23242;SDS011;11790;49.578;11.214;2023-08-07T01:34:31;4.20;;;0.50;;
23242;SDS011;11790;49.578;11.214;2023-08-07T01:39:33;1.40;;;0.68;;
23242;SDS011;11790;49.578;11.214;2023-08-07T01:44:34;5.63;;;0.70;;
23242;SDS011;11790;49.578;11.214;2023-08-07T01:49:34;2.25;;;0.60;;
23242;SDS011;11790;49.578;11.214;2023-08-07T01:54:34;1.02;;;0.60;;
23242;SDS011;11790;49.578;11.214;2023-08-07T01:59:34;2.13;;;0.60;;
23242;SDS011;11790;49.578;11.214;2023-08-07T02:04:34;1.10;;;0.50;;
23242;SDS011;11790;49.578;11.214;2023-08-07T02:09:35;0.95;;;0.45;;
23242;SDS011;11790;49.578;11.214;2023-08-07T02:14:35;1.17;;;0.45;;
23242;SDS011;11790;49.578;11.214;2023-08-07T02:19:35;2.70;;;0.60;;
23242;SDS011;11790;49.578;11.214;2023-08-07T02:24:36;1.20;;;0.50;;
23242;SDS011;11790;49.578;11.214;2023-08-07T02:29:36;2.30;;;0.50;;
23242;SDS011;11790;49.578;11.214;2023-08-07T02:34:37;2.05;;;0.45;;
23242;SDS011;11790;49.578;11.214;2023-08-07T02:39:37;3.05;;;0.70;;
23242;SDS011;11790;49.578;11.214;2023-08-07T02:44:37;2.83;;;0.70;;
23242;SDS011;11790;49.578;11.214;2023-08-07T02:49:37;2.35;;;0.70;;
23242;SDS011;11790;49.578;11.214;2023-08-07T02:54:37;1.23;;;0.70;;
23242;SDS011;11790;49.578;11.214;2023-08-07T02:59:38;0.82;;;0.52;;
23242;SDS011;11790;49.578;11.214;2023-08-07T03:04:38;1.92;;;0.70;;
23242;SDS011;11790;49.578;11.214;2023-08-07T03:09:38;2.38;;;0.73;;
23242;SDS011;11790;49.578;11.214;2023-08-07T03:14:38;1.52;;;0.60;;
23242;SDS011;11790;49.578;11.214;2023-08-07T03:19:39;1.93;;;0.63;;
23242;SDS011;11790;49.578;11.214;2023-08-07T03:24:39;2.13;;;0.80;;
23242;SDS011;11790;49.578;11.214;2023-08-07T03:29:40;2.05;;;0.93;;
23242;SDS011;11790;49.578;11.214;2023-08-07T03:34:40;1.88;;;0.80;;
23242;SDS011;11790;49.578;11.214;2023-08-07T03:39:40;1.20;;;0.90;;
23242;SDS011;11790;49.578;11.214;2023-08-07T03:44:40;1.77;;;0.90;;
23242;SDS011;11790;49.578;11.214;2023-08-07T03:49:41;1.35;;;0.85;;
23242;SDS011;11790;49.578;11.214;2023-08-07T03:54:41;3.55;;;1.33;;
23242;SDS011;11790;49.578;11.214;2023-08-07T03:59:41;7.45;;;1.52;;
23242;SDS011;11790;49.578;11.214;2023-08-07T04:04:41;1.63;;;1.23;;
23242;SDS011;11790;49.578;11.214;2023-08-07T04:09:41;2.90;;;1.40;;
23242;SDS011;11790;49.578;11.214;2023-08-07T04:14:41;3.40;;;1.25;;
23242;SDS011;11790;49.578;11.214;2023-08-07T04:19:42;3.00;;;1.30;;
23242;SDS011;11790;49.578;11.214;2023-08-07T04:24:42;1.80;;;1.30;;
23242;SDS011;11790;49.578;11.214;2023-08-07T04:29:42;4.65;;;1.70;;
23242;SDS011;11790;49.578;11.214;2023-08-07T04:34:42;3.35;;;1.48;;
23242;SDS011;11790;49.578;11.214;2023-08-07T04:39:42;4.35;;;1.70;;
23242;SDS011;11790;49.578;11.214;2023-08-07T04:44:43;4.50;;;1.60;;
23242;SDS011;11790;49.578;11.214;2023-08-07T04:49:43;7.32;;;2.33;;
23242;SDS011;11790;49.578;11.214;2023-08-07T04:54:43;3.08;;;1.50;;
23242;SDS011;11790;49.578;11.214;2023-08-07T04:59:43;5.38;;;1.60;;
23242;SDS011;11790;49.578;11.214;2023-08-07T05:04:43;3.17;;;1.92;;
23242;SDS011;11790;49.578;11.214;2023-08-07T05:09:43;6.28;;;2.05;;
23242;SDS011;11790;49.578;11.214;2023-08-07T05:14:44;3.67;;;2.10;;
23242;SDS011;11790;49.578;11.214;2023-08-07T05:19:44;7.93;;;2.45;;
23242;SDS011;11790;49.578;11.214;2023-08-07T05:24:44;4.38;;;2.35;;
23242;SDS011;11790;49.578;11.214;2023-08-07T05:29:45;7.22;;;2.55;;
23242;SDS011;11790;49.578;11.214;2023-08-07T05:34:45;6.88;;;2.22;;
23242;SDS011;11790;49.578;11.214;2023-08-07T05:39:45;4.00;;;2.15;;
23242;SDS011;11790;49.578;11.214;2023-08-07T05:44:46;4.20;;;2.67;;
23242;SDS011;11790;49.578;11.214;2023-08-07T05:49:46;6.03;;;2.65;;
23242;SDS011;11790;49.578;11.214;2023-08-07T05:54:46;7.97;;;2.85;;
23242;SDS011;11790;49.578;11.214;2023-08-07T05:59:46;5.38;;;2.58;;
23242;SDS011;11790;49.578;11.214;2023-08-07T06:04:47;5.35;;;2.53;;
23242;SDS011;11790;49.578;11.214;2023-08-07T06:09:48;5.90;;;2.70;;
23242;SDS011;11790;49.578;11.214;2023-08-07T06:14:48;5.68;;;2.88;;
23242;SDS011;11790;49.578;11.214;2023-08-07T06:19:48;4.95;;;2.38;;
23242;SDS011;11790;49.578;11.214;2023-08-07T06:24:49;3.50;;;2.05;;
23242;SDS011;11790;49.578;11.214;2023-08-07T06:29:49;6.32;;;2.40;;
23242;SDS011;11790;49.578;11.214;2023-08-07T06:34:50;6.72;;;2.50;;
23242;SDS011;11790;49.578;11.214;2023-08-07T06:39:50;5.60;;;2.22;;
23242;SDS011;11790;49.578;11.214;2023-08-07T06:44:51;6.03;;;2.50;;
23242;SDS011;11790;49.578;11.214;2023-08-07T06:49:51;4.40;;;2.20;;
23242;SDS011;11790;49.578;11.214;2023-08-07T06:54:51;6.05;;;2.42;;
23242;SDS011;11790;49.578;11.214;2023-08-07T06:59:52;5.25;;;2.55;;
23242;SDS011;11790;49.578;11.214;2023-08-07T07:04:52;5.93;;;2.10;;
23242;SDS011;11790;49.578;11.214;2023-08-07T07:09:52;8.05;;;2.33;;
23242;SDS011;11790;49.578;11.214;2023-08-07T07:14:53;5.15;;;2.50;;
23242;SDS011;11790;49.578;11.214;2023-08-07T07:19:53;7.30;;;2.40;;
23242;SDS011;11790;49.578;11.214;2023-08-07T07:24:53;6.70;;;2.20;;
23242;SDS011;11790;49.578;11.214;2023-08-07T07:29:54;8.38;;;2.55;;
23242;SDS011;11790;49.578;11.214;2023-08-07T07:34:54;5.80;;;2.65;;
23242;SDS011;11790;49.578;11.214;2023-08-07T07:39:54;8.00;;;2.63;;
23242;SDS011;11790;49.578;11.214;2023-08-07T07:44:54;6.55;;;2.40;;
23242;SDS011;11790;49.578;11.214;2023-08-07T07:50:04;5.30;;;2.77;;
23242;SDS011;11790;49.578;11.214;2023-08-07T07:55:04;7.20;;;3.08;;
23242;SDS011;11790;49.578;11.214;2023-08-07T08:00:05;7.82;;;2.63;;
23242;SDS011;11790;49.578;11.214;2023-08-07T08:05:10;10.65;;;2.88;;
23242;SDS011;11790;49.578;11.214;2023-08-07T08:10:10;4.18;;;2.58;;
23242;SDS011;11790;49.578;11.214;2023-08-07T08:15:11;8.05;;;2.47;;
23242;SDS011;11790;49.578;11.214;2023-08-07T08:20:11;6.80;;;2.88;;
23242;SDS011;11790;49.578;11.214;2023-08-07T08:25:11;6.85;;;2.90;;
23242;SDS011;11790;49.578;11.214;2023-08-07T08:30:12;7.72;;;3.05;;
23242;SDS011;11790;49.578;11.214;2023-08-07T08:35:12;6.50;;;3.10;;
23242;SDS011;11790;49.578;11.214;2023-08-07T08:40:12;9.27;;;2.90;;
23242;SDS011;11790;49.578;11.214;2023-08-07T08:45:14;5.13;;;2.75;;
23242;SDS011;11790;49.578;11.214;2023-08-07T08:50:15;5.55;;;3.70;;
23242;SDS011;11790;49.578;11.214;2023-08-07T08:55:15;10.13;;;3.25;;
23242;SDS011;11790;49.578;11.214;2023-08-07T09:00:16;6.00;;;3.30;;
23242;SDS011;11790;49.578;11.214;2023-08-07T09:05:21;8.63;;;2.92;;
23242;SDS011;11790;49.578;11.214;2023-08-07T09:10:21;6.75;;;2.75;;
23242;SDS011;11790;49.578;11.214;2023-08-07T09:15:22;8.63;;;3.40;;
23242;SDS011;11790;49.578;11.214;2023-08-07T09:20:23;8.00;;;2.90;;
23242;SDS011;11790;49.578;11.214;2023-08-07T09:25:27;6.13;;;3.03;;
23242;SDS011;11790;49.578;11.214;2023-08-07T09:30:28;6.13;;;3.00;;
23242;SDS011;11790;49.578;11.214;2023-08-07T09:35:29;4.50;;;2.60;;
23242;SDS011;11790;49.578;11.214;2023-08-07T09:40:31;3.90;;;2.50;;
23242;SDS011;11790;49.578;11.214;2023-08-07T09:45:31;4.95;;;2.63;;
23242;SDS011;11790;49.578;11.214;2023-08-07T09:50:33;3.92;;;2.47;;
23242;SDS011;11790;49.578;11.214;2023-08-07T09:55:33;5.07;;;2.90;;
23242;SDS011;11790;49.578;11.214;2023-08-07T10:00:34;9.52;;;2.97;;
23242;SDS011;11790;49.578;11.214;2023-08-07T10:05:35;4.93;;;2.53;;
23242;SDS011;11790;49.578;11.214;2023-08-07T10:10:36;4.45;;;2.92;;
23242;SDS011;11790;49.578;11.214;2023-08-07T10:15:36;7.88;;;2.67;;
23242;SDS011;11790;49.578;11.214;2023-08-07T10:20:37;5.88;;;2.88;;
23242;SDS011;11790;49.578;11.214;2023-08-07T10:25:39;4.72;;;2.75;;
23242;SDS011;11790;49.578;11.214;2023-08-07T10:30:41;3.50;;;2.90;;
23242;SDS011;11790;49.578;11.214;2023-08-07T10:35:45;4.85;;;2.80;;
23242;SDS011;11790;49.578;11.214;2023-08-07T10:40:59;6.13;;;2.80;;
23242;SDS011;11790;49.578;11.214;2023-08-07T10:46:04;4.43;;;2.80;;
23242;SDS011;11790;49.578;11.214;2023-08-07T10:51:05;5.35;;;2.95;;
23242;SDS011;11790;49.578;11.214;2023-08-07T10:56:09;4.18;;;2.47;;
23242;SDS011;11790;49.578;11.214;2023-08-07T11:06:43;8.00;;;2.30;;
23242;SDS011;11790;49.578;11.214;2023-08-07T11:11:47;6.78;;;3.00;;
23242;SDS011;11790;49.578;11.214;2023-08-07T11:16:47;4.50;;;2.40;;
23242;SDS011;11790;49.578;11.214;2023-08-07T11:21:48;6.75;;;2.38;;
23242;SDS011;11790;49.578;11.214;2023-08-07T11:26:48;3.53;;;2.40;;
23242;SDS011;11790;49.578;11.214;2023-08-07T11:31:48;5.28;;;2.50;;
23242;SDS011;11790;49.578;11.214;2023-08-07T11:36:49;3.80;;;2.42;;
23242;SDS011;11790;49.578;11.214;2023-08-07T11:41:51;6.37;;;2.63;;
23242;SDS011;11790;49.578;11.214;2023-08-07T11:46:52;3.30;;;2.13;;
23242;SDS011;11790;49.578;11.214;2023-08-07T11:51:52;5.20;;;2.10;;
23242;SDS011;11790;49.578;11.214;2023-08-07T11:56:53;5.50;;;2.47;;
23242;SDS011;11790;49.578;11.214;2023-08-07T12:01:53;7.47;;;2.25;;
23242;SDS011;11790;49.578;11.214;2023-08-07T12:06:54;5.38;;;2.03;;
23242;SDS011;11790;49.578;11.214;2023-08-07T12:11:57;3.72;;;2.08;;
23242;SDS011;11790;49.578;11.214;2023-08-07T12:17:00;6.22;;;2.65;;
23242;SDS011;11790;49.578;11.214;2023-08-07T12:22:00;4.43;;;2.17;;
23242;SDS011;11790;49.578;11.214;2023-08-07T12:32:05;4.47;;;1.90;;
23242;SDS011;11790;49.578;11.214;2023-08-07T12:37:05;5.57;;;1.85;;
23242;SDS011;11790;49.578;11.214;2023-08-07T12:42:06;4.80;;;1.80;;
23242;SDS011;11790;49.578;11.214;2023-08-07T12:47:06;4.20;;;2.13;;
23242;SDS011;11790;49.578;11.214;2023-08-07T12:52:06;4.88;;;1.65;;
23242;SDS011;11790;49.578;11.214;2023-08-07T12:57:07;2.47;;;1.90;;
23242;SDS011;11790;49.578;11.214;2023-08-07T13:02:07;2.85;;;1.73;;
23242;SDS011;11790;49.578;11.214;2023-08-07T13:07:07;4.20;;;2.75;;
23242;SDS011;11790;49.578;11.214;2023-08-07T13:12:08;9.45;;;2.20;;
23242;SDS011;11790;49.578;11.214;2023-08-07T13:17:08;3.17;;;1.80;;
23242;SDS011;11790;49.578;11.214;2023-08-07T13:22:08;2.92;;;2.20;;
23242;SDS011;11790;49.578;11.214;2023-08-07T13:27:09;3.27;;;1.70;;
23242;SDS011;11790;49.578;11.214;2023-08-07T13:32:09;6.90;;;2.75;;
23242;SDS011;11790;49.578;11.214;2023-08-07T13:37:09;2.47;;;2.05;;
23242;SDS011;11790;49.578;11.214;2023-08-07T13:42:10;5.93;;;2.95;;
23242;SDS011;11790;49.578;11.214;2023-08-07T13:47:10;7.68;;;3.17;;
23242;SDS011;11790;49.578;11.214;2023-08-07T13:52:11;5.95;;;2.40;;
23242;SDS011;11790;49.578;11.214;2023-08-07T13:57:11;5.18;;;2.13;;
23242;SDS011;11790;49.578;11.214;2023-08-07T14:02:12;3.55;;;1.92;;
23242;SDS011;11790;49.578;11.214;2023-08-07T14:07:12;3.03;;;1.80;;
23242;SDS011;11790;49.578;11.214;2023-08-07T14:12:12;6.40;;;1.80;;
23242;SDS011;11790;49.578;11.214;2023-08-07T14:17:13;2.88;;;1.77;;
23242;SDS011;11790;49.578;11.214;2023-08-07T14:22:13;2.65;;;1.73;;
23242;SDS011;11790;49.578;11.214;2023-08-07T14:27:13;3.40;;;1.90;;
23242;SDS011;11790;49.578;11.214;2023-08-07T14:32:13;4.45;;;1.98;;
23242;SDS011;11790;49.578;11.214;2023-08-07T14:37:13;4.03;;;2.13;;
23242;SDS011;11790;49.578;11.214;2023-08-07T14:42:14;3.85;;;1.85;;
23242;SDS011;11790;49.578;11.214;2023-08-07T14:47:14;7.50;;;2.38;;
23242;SDS011;11790;49.578;11.214;2023-08-07T14:52:14;3.97;;;2.23;;
23242;SDS011;11790;49.578;11.214;2023-08-07T14:57:15;4.60;;;2.58;;
23242;SDS011;11790;49.578;11.214;2023-08-07T15:02:15;8.63;;;2.60;;
23242;SDS011;11790;49.578;11.214;2023-08-07T15:07:15;6.78;;;2.40;;
23242;SDS011;11790;49.578;11.214;2023-08-07T15:12:16;3.77;;;2.20;;
23242;SDS011;11790;49.578;11.214;2023-08-07T15:17:16;5.30;;;2.10;;
23242;SDS011;11790;49.578;11.214;2023-08-07T15:22:16;4.25;;;2.03;;
23242;SDS011;11790;49.578;11.214;2023-08-07T15:27:16;4.47;;;2.35;;
23242;SDS011;11790;49.578;11.214;2023-08-07T15:32:17;6.47;;;2.58;;
23242;SDS011;11790;49.578;11.214;2023-08-07T15:37:19;5.32;;;2.63;;
23242;SDS011;11790;49.578;11.214;2023-08-07T15:42:19;4.88;;;2.17;;
23242;SDS011;11790;49.578;11.214;2023-08-07T15:47:19;6.22;;;2.25;;
23242;SDS011;11790;49.578;11.214;2023-08-07T15:52:20;7.03;;;2.55;;
23242;SDS011;11790;49.578;11.214;2023-08-07T15:57:21;3.92;;;2.15;;
23242;SDS011;11790;49.578;11.214;2023-08-07T16:02:21;5.07;;;2.70;;
23242;SDS011;11790;49.578;11.214;2023-08-07T16:07:21;4.35;;;2.10;;
23242;SDS011;11790;49.578;11.214;2023-08-07T16:12:22;4.78;;;2.08;;
23242;SDS011;11790;49.578;11.214;2023-08-07T16:17:22;5.23;;;2.20;;
23242;SDS011;11790;49.578;11.214;2023-08-07T16:22:22;6.45;;;2.50;;
23242;SDS011;11790;49.578;11.214;2023-08-07T16:27:22;5.55;;;2.38;;
23242;SDS011;11790;49.578;11.214;2023-08-07T16:32:23;3.92;;;2.05;;
23242;SDS011;11790;49.578;11.214;2023-08-07T16:37:23;4.90;;;2.30;;
23242;SDS011;11790;49.578;11.214;2023-08-07T16:42:23;7.10;;;1.95;;
23242;SDS011;11790;49.578;11.214;2023-08-07T16:47:24;5.38;;;2.30;;
23242;SDS011;11790;49.578;11.214;2023-08-07T16:52:25;3.65;;;1.77;;
23242;SDS011;11790;49.578;11.214;2023-08-07T16:57:25;2.40;;;1.73;;
23242;SDS011;11790;49.578;11.214;2023-08-07T17:02:25;5.03;;;1.70;;
23242;SDS011;11790;49.578;11.214;2023-08-07T17:07:25;6.00;;;1.90;;
23242;SDS011;11790;49.578;11.214;2023-08-07T17:12:26;3.30;;;1.70;;
23242;SDS011;11790;49.578;11.214;2023-08-07T17:17:26;2.70;;;1.70;;
23242;SDS011;11790;49.578;11.214;2023-08-07T17:22:26;3.85;;;1.80;;
23242;SDS011;11790;49.578;11.214;2023-08-07T17:27:27;3.72;;;1.80;;
23242;SDS011;11790;49.578;11.214;2023-08-07T17:32:28;3.75;;;1.80;;
23242;SDS011;11790;49.578;11.214;2023-08-07T17:37:28;6.72;;;1.83;;
23242;SDS011;11790;49.578;11.214;2023-08-07T17:42:28;5.95;;;1.77;;
23242;SDS011;11790;49.578;11.214;2023-08-07T17:47:29;4.40;;;1.90;;
23242;SDS011;11790;49.578;11.214;2023-08-07T17:52:29;3.55;;;1.80;;
23242;SDS011;11790;49.578;11.214;2023-08-07T17:57:29;3.45;;;1.88;;
23242;SDS011;11790;49.578;11.214;2023-08-07T18:02:29;4.82;;;2.10;;
23242;SDS011;11790;49.578;11.214;2023-08-07T18:07:30;5.30;;;2.17;;
23242;SDS011;11790;49.578;11.214;2023-08-07T18:12:30;6.45;;;2.20;;
23242;SDS011;11790;49.578;11.214;2023-08-07T18:17:30;3.53;;;1.80;;
23242;SDS011;11790;49.578;11.214;2023-08-07T18:22:32;4.43;;;2.22;;
23242;SDS011;11790;49.578;11.214;2023-08-07T18:27:32;3.80;;;2.00;;
23242;SDS011;11790;49.578;11.214;2023-08-07T18:32:32;4.05;;;2.22;;
23242;SDS011;11790;49.578;11.214;2023-08-07T18:37:35;6.03;;;2.38;;
23242;SDS011;11790;49.578;11.214;2023-08-07T18:42:36;4.77;;;2.20;;
23242;SDS011;11790;49.578;11.214;2023-08-07T18:47:36;3.42;;;1.80;;
23242;SDS011;11790;49.578;11.214;2023-08-07T18:52:36;11.52;;;3.65;;
23242;SDS011;11790;49.578;11.214;2023-08-07T18:57:37;3.72;;;2.30;;
23242;SDS011;11790;49.578;11.214;2023-08-07T19:02:37;12.50;;;2.33;;
23242;SDS011;11790;49.578;11.214;2023-08-07T19:07:40;5.28;;;2.10;;
23242;SDS011;11790;49.578;11.214;2023-08-07T19:12:40;3.35;;;2.20;;
23242;SDS011;11790;49.578;11.214;2023-08-07T19:17:40;5.82;;;2.55;;
23242;SDS011;11790;49.578;11.214;2023-08-07T19:22:41;4.90;;;2.30;;
23242;SDS011;11790;49.578;11.214;2023-08-07T19:27:41;8.53;;;2.63;;
23242;SDS011;11790;49.578;11.214;2023-08-07T19:32:41;6.15;;;2.50;;
23242;SDS011;11790;49.578;11.214;2023-08-07T19:37:43;3.67;;;2.47;;
23242;SDS011;11790;49.578;11.214;2023-08-07T19:42:43;6.18;;;2.67;;
23242;SDS011;11790;49.578;11.214;2023-08-07T19:47:45;7.78;;;2.65;;
23242;SDS011;11790;49.578;11.214;2023-08-07T19:52:45;6.78;;;2.70;;
23242;SDS011;11790;49.578;11.214;2023-08-07T19:57:46;5.03;;;2.70;;
23242;SDS011;11790;49.578;11.214;2023-08-07T20:02:46;4.45;;;2.63;;
23242;SDS011;11790;49.578;11.214;2023-08-07T20:07:46;9.65;;;2.72;;
23242;SDS011;11790;49.578;11.214;2023-08-07T20:12:46;5.50;;;2.75;;
23242;SDS011;11790;49.578;11.214;2023-08-07T20:17:47;8.32;;;2.90;;
23242;SDS011;11790;49.578;11.214;2023-08-07T20:22:48;6.63;;;2.47;;
23242;SDS011;11790;49.578;11.214;2023-08-07T20:27:48;4.30;;;2.30;;
23242;SDS011;11790;49.578;11.214;2023-08-07T20:32:48;3.88;;;2.42;;
23242;SDS011;11790;49.578;11.214;2023-08-07T20:37:49;5.03;;;2.53;;
23242;SDS011;11790;49.578;11.214;2023-08-07T20:42:49;5.88;;;2.42;;
23242;SDS011;11790;49.578;11.214;2023-08-07T20:47:50;3.70;;;2.40;;
23242;SDS011;11790;49.578;11.214;2023-08-07T20:52:51;4.60;;;2.40;;
23242;SDS011;11790;49.578;11.214;2023-08-07T20:57:51;4.78;;;2.13;;
23242;SDS011;11790;49.578;11.214;2023-08-07T21:02:51;3.25;;;2.05;;
23242;SDS011;11790;49.578;11.214;2023-08-07T21:07:51;3.90;;;2.63;;
23242;SDS011;11790;49.578;11.214;2023-08-07T21:12:52;5.80;;;2.60;;
23242;SDS011;11790;49.578;11.214;2023-08-07T21:17:52;3.60;;;2.40;;
23242;SDS011;11790;49.578;11.214;2023-08-07T21:22:52;4.97;;;2.43;;
23242;SDS011;11790;49.578;11.214;2023-08-07T21:27:53;5.97;;;2.47;;
23242;SDS011;11790;49.578;11.214;2023-08-07T21:32:53;4.15;;;2.15;;
23242;SDS011;11790;49.578;11.214;2023-08-07T21:37:53;5.90;;;2.42;;
23242;SDS011;11790;49.578;11.214;2023-08-07T21:42:53;4.60;;;2.50;;
23242;SDS011;11790;49.578;11.214;2023-08-07T21:47:54;4.93;;;2.30;;
23242;SDS011;11790;49.578;11.214;2023-08-07T21:52:54;3.40;;;2.50;;
23242;SDS011;11790;49.578;11.214;2023-08-07T21:57:54;4.15;;;2.42;;
23242;SDS011;11790;49.578;11.214;2023-08-07T22:02:54;3.28;;;2.33;;
23242;SDS011;11790;49.578;11.214;2023-08-07T22:07:55;4.25;;;2.38;;
23242;SDS011;11790;49.578;11.214;2023-08-07T22:12:55;4.43;;;2.30;;
23242;SDS011;11790;49.578;11.214;2023-08-07T22:17:55;5.88;;;2.80;;
23242;SDS011;11790;49.578;11.214;2023-08-07T22:22:56;5.63;;;2.60;;
23242;SDS011;11790;49.578;11.214;2023-08-07T22:27:56;4.25;;;3.08;;
23242;SDS011;11790;49.578;11.214;2023-08-07T22:32:56;4.20;;;2.80;;
23242;SDS011;11790;49.578;11.214;2023-08-07T22:37:58;6.93;;;3.30;;
23242;SDS011;11790;49.578;11.214;2023-08-07T22:42:58;5.45;;;3.08;;
23242;SDS011;11790;49.578;11.214;2023-08-07T22:47:58;6.05;;;3.08;;
23242;SDS011;11790;49.578;11.214;2023-08-07T22:52:58;5.03;;;3.20;;
23242;SDS011;11790;49.578;11.214;2023-08-07T22:57:59;9.10;;;3.28;;
23242;SDS011;11790;49.578;11.214;2023-08-07T23:02:59;5.40;;;3.45;;
23242;SDS011;11790;49.578;11.214;2023-08-07T23:07:59;6.53;;;3.35;;
23242;SDS011;11790;49.578;11.214;2023-08-07T23:12:59;6.75;;;3.60;;
23242;SDS011;11790;49.578;11.214;2023-08-07T23:17:59;5.72;;;3.28;;
23242;SDS011;11790;49.578;11.214;2023-08-07T23:22:59;5.88;;;3.50;;
23242;SDS011;11790;49.578;11.214;2023-08-07T23:28:00;5.68;;;3.75;;
23242;SDS011;11790;49.578;11.214;2023-08-07T23:33:00;7.18;;;3.55;;
23242;SDS011;11790;49.578;11.214;2023-08-07T23:38:01;6.95;;;3.67;;
23242;SDS011;11790;49.578;11.214;2023-08-07T23:43:01;6.10;;;3.65;;
23242;SDS011;11790;49.578;11.214;2023-08-07T23:48:02;5.55;;;3.70;;
23242;SDS011;11790;49.578;11.214;2023-08-07T23:53:03;6.43;;;3.33;;
23242;SDS011;11790;49.578;11.214;2023-08-07T23:58:03;5.10;;;3.60;;
